sensor_id;sensor_type;location;lat;lon;timestamp;P1;durP1;ratioP1;P2;durP2;ratioP2
19593;SDS011;9944;48.240;16.478;2023-12-22T00:03:04;0.20;;;0.20;;
19593;SDS011;9944;48.240;16.478;2023-12-22T00:07:08;0.22;;;0.22;;
19593;SDS011;9944;48.240;16.478;2023-12-22T00:11:11;0.13;;;0.13;;
19593;SDS011;9944;48.240;16.478;2023-12-22T00:15:15;1.10;;;0.20;;
19593;SDS011;9944;48.240;16.478;2023-12-22T00:19:18;0.22;;;0.20;;
19593;SDS011;9944;48.240;16.478;2023-12-22T00:23:23;0.20;;;0.20;;
19593;SDS011;9944;48.240;16.478;2023-12-22T00:27:26;3.20;;;0.50;;
19593;SDS011;9944;48.240;16.478;2023-12-22T00:31:30;1.00;;;0.35;;
19593;SDS011;9944;48.240;16.478;2023-12-22T00:35:33;0.85;;;0.20;;
19593;SDS011;9944;48.240;16.478;2023-12-22T00:39:39;0.40;;;0.20;;
19593;SDS011;9944;48.240;16.478;2023-12-22T00:43:42;0.40;;;0.22;;
19593;SDS011;9944;48.240;16.478;2023-12-22T00:47:45;1.65;;;0.45;;
19593;SDS011;9944;48.240;16.478;2023-12-22T00:51:49;0.63;;;0.40;;
19593;SDS011;9944;48.240;16.478;2023-12-22T00:55:54;0.88;;;0.20;;
19593;SDS011;9944;48.240;16.478;2023-12-22T00:59:57;0.25;;;0.13;;
19593;SDS011;9944;48.240;16.478;2023-12-22T01:04:01;0.45;;;0.30;;
19593;SDS011;9944;48.240;16.478;2023-12-22T01:08:04;0.65;;;0.38;;
19593;SDS011;9944;48.240;16.478;2023-12-22T01:12:09;0.45;;;0.25;;
19593;SDS011;9944;48.240;16.478;2023-12-22T01:16:12;0.30;;;0.30;;
19593;SDS011;9944;48.240;16.478;2023-12-22T01:20:17;0.40;;;0.20;;
19593;SDS011;9944;48.240;16.478;2023-12-22T01:24:20;1.02;;;0.38;;
19593;SDS011;9944;48.240;16.478;2023-12-22T01:28:25;0.40;;;0.28;;
19593;SDS011;9944;48.240;16.478;2023-12-22T01:32:28;0.13;;;0.13;;
19593;SDS011;9944;48.240;16.478;2023-12-22T01:36:37;0.70;;;0.30;;
19593;SDS011;9944;48.240;16.478;2023-12-22T01:40:40;0.55;;;0.40;;
19593;SDS011;9944;48.240;16.478;2023-12-22T01:44:45;0.35;;;0.30;;
19593;SDS011;9944;48.240;16.478;2023-12-22T01:48:48;0.73;;;0.22;;
19593;SDS011;9944;48.240;16.478;2023-12-22T01:52:52;1.55;;;0.40;;
19593;SDS011;9944;48.240;16.478;2023-12-22T01:56:55;0.63;;;0.50;;
19593;SDS011;9944;48.240;16.478;2023-12-22T02:01:01;0.30;;;0.30;;
19593;SDS011;9944;48.240;16.478;2023-12-22T02:05:05;1.85;;;0.60;;
19593;SDS011;9944;48.240;16.478;2023-12-22T02:09:11;0.88;;;0.52;;
19593;SDS011;9944;48.240;16.478;2023-12-22T02:13:14;1.23;;;0.45;;
19593;SDS011;9944;48.240;16.478;2023-12-22T02:17:20;1.90;;;0.50;;
19593;SDS011;9944;48.240;16.478;2023-12-22T02:21:29;0.65;;;0.35;;
19593;SDS011;9944;48.240;16.478;2023-12-22T02:25:33;2.60;;;0.57;;
19593;SDS011;9944;48.240;16.478;2023-12-22T02:29:37;1.20;;;0.30;;
19593;SDS011;9944;48.240;16.478;2023-12-22T02:33:46;1.27;;;0.43;;
19593;SDS011;9944;48.240;16.478;2023-12-22T02:37:50;0.63;;;0.40;;
19593;SDS011;9944;48.240;16.478;2023-12-22T02:41:57;0.28;;;0.28;;
19593;SDS011;9944;48.240;16.478;2023-12-22T02:46:00;2.55;;;0.45;;
19593;SDS011;9944;48.240;16.478;2023-12-22T02:50:04;0.88;;;0.50;;
19593;SDS011;9944;48.240;16.478;2023-12-22T02:54:07;1.92;;;0.65;;
19593;SDS011;9944;48.240;16.478;2023-12-22T02:58:12;0.95;;;0.40;;
19593;SDS011;9944;48.240;16.478;2023-12-22T03:02:15;1.88;;;0.80;;
19593;SDS011;9944;48.240;16.478;2023-12-22T03:06:19;2.55;;;0.80;;
19593;SDS011;9944;48.240;16.478;2023-12-22T03:10:22;3.30;;;0.77;;
19593;SDS011;9944;48.240;16.478;2023-12-22T03:14:27;2.63;;;0.75;;
19593;SDS011;9944;48.240;16.478;2023-12-22T03:18:31;1.25;;;0.60;;
19593;SDS011;9944;48.240;16.478;2023-12-22T03:22:34;1.55;;;0.65;;
19593;SDS011;9944;48.240;16.478;2023-12-22T03:26:37;2.70;;;0.80;;
19593;SDS011;9944;48.240;16.478;2023-12-22T03:30:42;1.25;;;0.65;;
19593;SDS011;9944;48.240;16.478;2023-12-22T03:34:45;3.42;;;1.10;;
19593;SDS011;9944;48.240;16.478;2023-12-22T03:38:48;2.33;;;0.80;;
19593;SDS011;9944;48.240;16.478;2023-12-22T03:42:51;1.95;;;0.60;;
19593;SDS011;9944;48.240;16.478;2023-12-22T03:46:56;1.73;;;0.55;;
19593;SDS011;9944;48.240;16.478;2023-12-22T03:50:59;4.70;;;0.93;;
19593;SDS011;9944;48.240;16.478;2023-12-22T03:55:02;3.20;;;0.90;;
19593;SDS011;9944;48.240;16.478;2023-12-22T03:59:06;2.15;;;0.60;;
19593;SDS011;9944;48.240;16.478;2023-12-22T04:03:10;3.42;;;0.93;;
19593;SDS011;9944;48.240;16.478;2023-12-22T04:07:14;3.00;;;0.75;;
19593;SDS011;9944;48.240;16.478;2023-12-22T04:11:17;1.55;;;0.73;;
19593;SDS011;9944;48.240;16.478;2023-12-22T04:15:20;0.68;;;0.52;;
19593;SDS011;9944;48.240;16.478;2023-12-22T04:19:25;0.32;;;0.32;;
19593;SDS011;9944;48.240;16.478;2023-12-22T04:23:28;1.48;;;0.40;;
19593;SDS011;9944;48.240;16.478;2023-12-22T04:27:32;0.55;;;0.40;;
19593;SDS011;9944;48.240;16.478;2023-12-22T04:31:35;1.05;;;0.60;;
19593;SDS011;9944;48.240;16.478;2023-12-22T04:35:40;1.27;;;0.68;;
19593;SDS011;9944;48.240;16.478;2023-12-22T04:39:43;0.32;;;0.30;;
19593;SDS011;9944;48.240;16.478;2023-12-22T04:43:46;0.80;;;0.40;;
19593;SDS011;9944;48.240;16.478;2023-12-22T04:47:49;1.63;;;0.47;;
19593;SDS011;9944;48.240;16.478;2023-12-22T04:51:54;0.95;;;0.40;;
19593;SDS011;9944;48.240;16.478;2023-12-22T04:56:02;0.47;;;0.40;;
19593;SDS011;9944;48.240;16.478;2023-12-22T05:00:07;0.30;;;0.30;;
19593;SDS011;9944;48.240;16.478;2023-12-22T05:04:10;0.45;;;0.45;;
19593;SDS011;9944;48.240;16.478;2023-12-22T05:08:15;1.80;;;0.50;;
19593;SDS011;9944;48.240;16.478;2023-12-22T05:12:18;0.30;;;0.30;;
19593;SDS011;9944;48.240;16.478;2023-12-22T05:16:22;1.10;;;0.70;;
19593;SDS011;9944;48.240;16.478;2023-12-22T05:20:25;0.75;;;0.20;;
19593;SDS011;9944;48.240;16.478;2023-12-22T05:24:29;0.40;;;0.30;;
19593;SDS011;9944;48.240;16.478;2023-12-22T05:28:32;0.60;;;0.38;;
19593;SDS011;9944;48.240;16.478;2023-12-22T05:32:36;1.77;;;0.82;;
19593;SDS011;9944;48.240;16.478;2023-12-22T05:36:39;1.65;;;0.70;;
19593;SDS011;9944;48.240;16.478;2023-12-22T05:40:43;2.13;;;0.60;;
19593;SDS011;9944;48.240;16.478;2023-12-22T05:44:46;0.50;;;0.30;;
19593;SDS011;9944;48.240;16.478;2023-12-22T05:48:51;1.05;;;0.52;;
19593;SDS011;9944;48.240;16.478;2023-12-22T05:52:57;1.83;;;0.70;;
19593;SDS011;9944;48.240;16.478;2023-12-22T05:57:02;0.90;;;0.57;;
19593;SDS011;9944;48.240;16.478;2023-12-22T06:01:07;2.63;;;1.00;;
19593;SDS011;9944;48.240;16.478;2023-12-22T06:05:16;3.13;;;0.50;;
19593;SDS011;9944;48.240;16.478;2023-12-22T06:09:20;1.33;;;0.50;;
19593;SDS011;9944;48.240;16.478;2023-12-22T06:13:25;3.05;;;0.68;;
19593;SDS011;9944;48.240;16.478;2023-12-22T06:17:28;1.75;;;0.70;;
19593;SDS011;9944;48.240;16.478;2023-12-22T06:21:31;2.08;;;0.68;;
19593;SDS011;9944;48.240;16.478;2023-12-22T06:25:34;1.30;;;0.60;;
19593;SDS011;9944;48.240;16.478;2023-12-22T06:29:39;1.02;;;0.52;;
19593;SDS011;9944;48.240;16.478;2023-12-22T06:33:42;4.50;;;0.70;;
19593;SDS011;9944;48.240;16.478;2023-12-22T06:37:46;3.58;;;1.15;;
19593;SDS011;9944;48.240;16.478;2023-12-22T06:41:49;1.35;;;0.75;;
19593;SDS011;9944;48.240;16.478;2023-12-22T06:45:54;1.17;;;0.65;;
19593;SDS011;9944;48.240;16.478;2023-12-22T06:49:57;1.05;;;0.40;;
19593;SDS011;9944;48.240;16.478;2023-12-22T06:54:01;1.98;;;0.60;;
19593;SDS011;9944;48.240;16.478;2023-12-22T06:58:04;4.68;;;0.90;;
19593;SDS011;9944;48.240;16.478;2023-12-22T07:02:09;3.25;;;0.68;;
19593;SDS011;9944;48.240;16.478;2023-12-22T07:06:22;4.97;;;0.65;;
19593;SDS011;9944;48.240;16.478;2023-12-22T07:10:28;2.28;;;0.80;;
19593;SDS011;9944;48.240;16.478;2023-12-22T07:14:31;1.35;;;0.55;;
19593;SDS011;9944;48.240;16.478;2023-12-22T07:18:38;0.85;;;0.50;;
19593;SDS011;9944;48.240;16.478;2023-12-22T07:22:44;0.57;;;0.50;;
19593;SDS011;9944;48.240;16.478;2023-12-22T07:26:47;0.52;;;0.52;;
19593;SDS011;9944;48.240;16.478;2023-12-22T07:30:50;0.75;;;0.45;;
19593;SDS011;9944;48.240;16.478;2023-12-22T07:34:58;1.67;;;0.65;;
19593;SDS011;9944;48.240;16.478;2023-12-22T07:39:02;0.85;;;0.60;;
19593;SDS011;9944;48.240;16.478;2023-12-22T07:43:07;0.88;;;0.60;;
19593;SDS011;9944;48.240;16.478;2023-12-22T07:47:10;0.70;;;0.65;;
19593;SDS011;9944;48.240;16.478;2023-12-22T07:51:16;1.85;;;0.80;;
19593;SDS011;9944;48.240;16.478;2023-12-22T07:55:19;0.98;;;0.40;;
19593;SDS011;9944;48.240;16.478;2023-12-22T07:59:22;1.08;;;0.50;;
19593;SDS011;9944;48.240;16.478;2023-12-22T08:03:32;0.75;;;0.50;;
19593;SDS011;9944;48.240;16.478;2023-12-22T08:07:37;1.27;;;0.40;;
19593;SDS011;9944;48.240;16.478;2023-12-22T08:11:40;2.17;;;0.65;;
19593;SDS011;9944;48.240;16.478;2023-12-22T08:15:44;0.60;;;0.50;;
19593;SDS011;9944;48.240;16.478;2023-12-22T08:19:47;0.45;;;0.45;;
19593;SDS011;9944;48.240;16.478;2023-12-22T08:23:55;1.77;;;0.60;;
19593;SDS011;9944;48.240;16.478;2023-12-22T08:27:58;1.30;;;0.70;;
19593;SDS011;9944;48.240;16.478;2023-12-22T08:32:03;0.70;;;0.68;;
19593;SDS011;9944;48.240;16.478;2023-12-22T08:36:06;0.77;;;0.50;;
19593;SDS011;9944;48.240;16.478;2023-12-22T08:40:12;0.38;;;0.38;;
19593;SDS011;9944;48.240;16.478;2023-12-22T08:44:17;0.50;;;0.50;;
19593;SDS011;9944;48.240;16.478;2023-12-22T08:48:20;0.82;;;0.60;;
19593;SDS011;9944;48.240;16.478;2023-12-22T08:52:23;0.63;;;0.50;;
19593;SDS011;9944;48.240;16.478;2023-12-22T08:56:28;1.17;;;0.60;;
19593;SDS011;9944;48.240;16.478;2023-12-22T09:00:31;1.27;;;0.65;;
19593;SDS011;9944;48.240;16.478;2023-12-22T09:04:35;1.42;;;0.70;;
19593;SDS011;9944;48.240;16.478;2023-12-22T09:08:38;0.57;;;0.40;;
19593;SDS011;9944;48.240;16.478;2023-12-22T09:12:43;0.75;;;0.60;;
19593;SDS011;9944;48.240;16.478;2023-12-22T09:16:46;0.85;;;0.52;;
19593;SDS011;9944;48.240;16.478;2023-12-22T09:20:49;1.13;;;0.60;;
19593;SDS011;9944;48.240;16.478;2023-12-22T09:24:52;0.75;;;0.60;;
19593;SDS011;9944;48.240;16.478;2023-12-22T09:28:57;0.85;;;0.65;;
19593;SDS011;9944;48.240;16.478;2023-12-22T09:33:00;0.45;;;0.45;;
19593;SDS011;9944;48.240;16.478;2023-12-22T09:37:03;1.70;;;0.45;;
19593;SDS011;9944;48.240;16.478;2023-12-22T09:41:06;0.93;;;0.50;;
19593;SDS011;9944;48.240;16.478;2023-12-22T09:45:12;1.73;;;0.52;;
19593;SDS011;9944;48.240;16.478;2023-12-22T09:49:15;0.82;;;0.63;;
19593;SDS011;9944;48.240;16.478;2023-12-22T09:53:22;0.55;;;0.30;;
19593;SDS011;9944;48.240;16.478;2023-12-22T09:57:26;0.60;;;0.52;;
19593;SDS011;9944;48.240;16.478;2023-12-22T10:01:34;0.88;;;0.60;;
19593;SDS011;9944;48.240;16.478;2023-12-22T10:05:38;2.15;;;0.95;;
19593;SDS011;9944;48.240;16.478;2023-12-22T10:09:43;0.77;;;0.60;;
19593;SDS011;9944;48.240;16.478;2023-12-22T10:13:49;1.52;;;1.00;;
19593;SDS011;9944;48.240;16.478;2023-12-22T10:17:56;0.98;;;0.47;;
19593;SDS011;9944;48.240;16.478;2023-12-22T10:22:00;1.67;;;0.70;;
19593;SDS011;9944;48.240;16.478;2023-12-22T10:26:03;0.45;;;0.40;;
19593;SDS011;9944;48.240;16.478;2023-12-22T10:30:07;0.60;;;0.40;;
19593;SDS011;9944;48.240;16.478;2023-12-22T10:34:12;1.17;;;0.50;;
19593;SDS011;9944;48.240;16.478;2023-12-22T10:38:15;1.48;;;0.85;;
19593;SDS011;9944;48.240;16.478;2023-12-22T10:42:25;0.30;;;0.30;;
19593;SDS011;9944;48.240;16.478;2023-12-22T10:46:29;1.88;;;0.40;;
19593;SDS011;9944;48.240;16.478;2023-12-22T10:50:38;0.38;;;0.38;;
19593;SDS011;9944;48.240;16.478;2023-12-22T10:54:42;0.30;;;0.30;;
19593;SDS011;9944;48.240;16.478;2023-12-22T10:58:45;0.30;;;0.30;;
19593;SDS011;9944;48.240;16.478;2023-12-22T11:02:49;0.52;;;0.30;;
19593;SDS011;9944;48.240;16.478;2023-12-22T11:07:03;0.60;;;0.10;;
19593;SDS011;9944;48.240;16.478;2023-12-22T11:11:08;1.80;;;0.38;;
19593;SDS011;9944;48.240;16.478;2023-12-22T11:15:20;0.43;;;0.40;;
19593;SDS011;9944;48.240;16.478;2023-12-22T11:19:25;0.95;;;0.65;;
19593;SDS011;9944;48.240;16.478;2023-12-22T11:23:34;0.20;;;0.20;;
19593;SDS011;9944;48.240;16.478;2023-12-22T11:27:38;2.72;;;0.47;;
19593;SDS011;9944;48.240;16.478;2023-12-22T11:31:43;1.27;;;0.60;;
19593;SDS011;9944;48.240;16.478;2023-12-22T11:35:47;0.45;;;0.40;;
19593;SDS011;9944;48.240;16.478;2023-12-22T11:39:54;0.77;;;0.40;;
19593;SDS011;9944;48.240;16.478;2023-12-22T11:43:57;0.80;;;0.60;;
19593;SDS011;9944;48.240;16.478;2023-12-22T11:48:06;1.70;;;0.50;;
19593;SDS011;9944;48.240;16.478;2023-12-22T11:52:11;0.75;;;0.40;;
19593;SDS011;9944;48.240;16.478;2023-12-22T11:56:17;1.35;;;0.20;;
19593;SDS011;9944;48.240;16.478;2023-12-22T12:04:43;0.28;;;0.20;;
19593;SDS011;9944;48.240;16.478;2023-12-22T12:08:46;0.25;;;0.25;;
19593;SDS011;9944;48.240;16.478;2023-12-22T12:13:05;0.40;;;0.30;;
19593;SDS011;9944;48.240;16.478;2023-12-22T12:17:09;0.22;;;0.20;;
19593;SDS011;9944;48.240;16.478;2023-12-22T12:21:14;2.25;;;0.28;;
19593;SDS011;9944;48.240;16.478;2023-12-22T12:25:18;0.50;;;0.22;;
19593;SDS011;9944;48.240;16.478;2023-12-22T12:29:37;0.40;;;0.22;;
19593;SDS011;9944;48.240;16.478;2023-12-22T12:33:41;0.30;;;0.25;;
19593;SDS011;9944;48.240;16.478;2023-12-22T12:37:46;0.47;;;0.35;;
19593;SDS011;9944;48.240;16.478;2023-12-22T12:41:54;0.88;;;0.28;;
19593;SDS011;9944;48.240;16.478;2023-12-22T12:46:04;0.38;;;0.30;;
19593;SDS011;9944;48.240;16.478;2023-12-22T12:50:08;0.88;;;0.30;;
19593;SDS011;9944;48.240;16.478;2023-12-22T12:54:13;1.80;;;0.40;;
19593;SDS011;9944;48.240;16.478;2023-12-22T12:58:17;0.55;;;0.30;;
19593;SDS011;9944;48.240;16.478;2023-12-22T13:02:21;0.80;;;0.40;;
19593;SDS011;9944;48.240;16.478;2023-12-22T13:06:25;0.68;;;0.35;;
19593;SDS011;9944;48.240;16.478;2023-12-22T13:10:29;3.03;;;0.68;;
19593;SDS011;9944;48.240;16.478;2023-12-22T13:14:33;0.98;;;0.77;;
19593;SDS011;9944;48.240;16.478;2023-12-22T13:18:38;1.60;;;0.50;;
19593;SDS011;9944;48.240;16.478;2023-12-22T13:22:43;4.63;;;0.50;;
19593;SDS011;9944;48.240;16.478;2023-12-22T13:26:47;1.48;;;0.60;;
19593;SDS011;9944;48.240;16.478;2023-12-22T13:31:02;1.50;;;0.40;;
19593;SDS011;9944;48.240;16.478;2023-12-22T13:35:08;0.90;;;0.30;;
19593;SDS011;9944;48.240;16.478;2023-12-22T13:39:12;1.00;;;0.77;;
19593;SDS011;9944;48.240;16.478;2023-12-22T13:43:15;0.57;;;0.50;;
19593;SDS011;9944;48.240;16.478;2023-12-22T13:47:19;1.30;;;0.40;;
19593;SDS011;9944;48.240;16.478;2023-12-22T13:51:24;0.93;;;0.50;;
19593;SDS011;9944;48.240;16.478;2023-12-22T13:55:27;1.27;;;0.40;;
19593;SDS011;9944;48.240;16.478;2023-12-22T13:59:31;1.52;;;0.75;;
19593;SDS011;9944;48.240;16.478;2023-12-22T14:03:34;0.73;;;0.47;;
19593;SDS011;9944;48.240;16.478;2023-12-22T14:07:39;2.35;;;0.70;;
19593;SDS011;9944;48.240;16.478;2023-12-22T14:11:42;2.22;;;0.50;;
19593;SDS011;9944;48.240;16.478;2023-12-22T14:15:58;1.55;;;0.65;;
19593;SDS011;9944;48.240;16.478;2023-12-22T14:20:02;1.00;;;0.70;;
19593;SDS011;9944;48.240;16.478;2023-12-22T14:24:08;0.90;;;0.35;;
19593;SDS011;9944;48.240;16.478;2023-12-22T14:28:11;1.38;;;0.80;;
19593;SDS011;9944;48.240;16.478;2023-12-22T14:32:14;0.47;;;0.47;;
19593;SDS011;9944;48.240;16.478;2023-12-22T14:36:20;2.90;;;0.73;;
19593;SDS011;9944;48.240;16.478;2023-12-22T14:40:25;0.70;;;0.47;;
19593;SDS011;9944;48.240;16.478;2023-12-22T14:44:28;0.60;;;0.55;;
19593;SDS011;9944;48.240;16.478;2023-12-22T14:48:31;0.47;;;0.47;;
19593;SDS011;9944;48.240;16.478;2023-12-22T14:52:35;0.70;;;0.28;;
19593;SDS011;9944;48.240;16.478;2023-12-22T14:56:40;1.02;;;0.40;;
19593;SDS011;9944;48.240;16.478;2023-12-22T15:00:43;0.85;;;0.43;;
19593;SDS011;9944;48.240;16.478;2023-12-22T15:04:47;0.73;;;0.50;;
19593;SDS011;9944;48.240;16.478;2023-12-22T15:08:50;0.75;;;0.50;;
19593;SDS011;9944;48.240;16.478;2023-12-22T15:12:56;1.23;;;0.55;;
19593;SDS011;9944;48.240;16.478;2023-12-22T15:16:59;0.68;;;0.28;;
19593;SDS011;9944;48.240;16.478;2023-12-22T15:21:03;0.45;;;0.30;;
19593;SDS011;9944;48.240;16.478;2023-12-22T15:25:06;0.38;;;0.30;;
19593;SDS011;9944;48.240;16.478;2023-12-22T15:29:11;0.43;;;0.40;;
19593;SDS011;9944;48.240;16.478;2023-12-22T15:33:14;0.20;;;0.20;;
19593;SDS011;9944;48.240;16.478;2023-12-22T15:37:17;0.85;;;0.20;;
19593;SDS011;9944;48.240;16.478;2023-12-22T15:41:20;1.15;;;0.30;;
19593;SDS011;9944;48.240;16.478;2023-12-22T15:45:25;1.73;;;0.43;;
19593;SDS011;9944;48.240;16.478;2023-12-22T15:49:28;1.10;;;0.47;;
19593;SDS011;9944;48.240;16.478;2023-12-22T15:53:36;0.57;;;0.20;;
19593;SDS011;9944;48.240;16.478;2023-12-22T15:57:39;0.40;;;0.30;;
19593;SDS011;9944;48.240;16.478;2023-12-22T16:01:44;1.65;;;0.40;;
19593;SDS011;9944;48.240;16.478;2023-12-22T16:05:48;0.85;;;0.40;;
19593;SDS011;9944;48.240;16.478;2023-12-22T16:09:51;1.42;;;0.30;;
19593;SDS011;9944;48.240;16.478;2023-12-22T16:13:55;1.98;;;0.30;;
19593;SDS011;9944;48.240;16.478;2023-12-22T16:18:00;0.22;;;0.20;;
19593;SDS011;9944;48.240;16.478;2023-12-22T16:22:04;0.30;;;0.30;;
19593;SDS011;9944;48.240;16.478;2023-12-22T16:26:07;0.13;;;0.13;;
19593;SDS011;9944;48.240;16.478;2023-12-22T16:30:10;1.15;;;0.28;;
19593;SDS011;9944;48.240;16.478;2023-12-22T16:34:15;0.30;;;0.30;;
19593;SDS011;9944;48.240;16.478;2023-12-22T16:38:18;0.20;;;0.20;;
19593;SDS011;9944;48.240;16.478;2023-12-22T16:42:22;0.17;;;0.17;;
19593;SDS011;9944;48.240;16.478;2023-12-22T16:46:26;0.20;;;0.20;;
19593;SDS011;9944;48.240;16.478;2023-12-22T16:50:30;0.25;;;0.10;;
19593;SDS011;9944;48.240;16.478;2023-12-22T16:54:33;0.10;;;0.10;;
19593;SDS011;9944;48.240;16.478;2023-12-22T16:58:37;0.80;;;0.17;;
19593;SDS011;9944;48.240;16.478;2023-12-22T17:02:40;0.20;;;0.20;;
19593;SDS011;9944;48.240;16.478;2023-12-22T17:06:48;0.15;;;0.10;;
19593;SDS011;9944;48.240;16.478;2023-12-22T17:10:52;0.25;;;0.25;;
19593;SDS011;9944;48.240;16.478;2023-12-22T17:14:56;0.57;;;0.30;;
19593;SDS011;9944;48.240;16.478;2023-12-22T17:18:59;0.45;;;0.30;;
19593;SDS011;9944;48.240;16.478;2023-12-22T17:23:04;0.20;;;0.20;;
19593;SDS011;9944;48.240;16.478;2023-12-22T17:27:07;0.20;;;0.20;;
19593;SDS011;9944;48.240;16.478;2023-12-22T17:31:11;0.40;;;0.40;;
19593;SDS011;9944;48.240;16.478;2023-12-22T17:35:14;0.68;;;0.20;;
19593;SDS011;9944;48.240;16.478;2023-12-22T17:39:19;0.30;;;0.30;;
19593;SDS011;9944;48.240;16.478;2023-12-22T17:43:22;0.45;;;0.20;;
19593;SDS011;9944;48.240;16.478;2023-12-22T17:47:25;0.30;;;0.20;;
19593;SDS011;9944;48.240;16.478;2023-12-22T17:51:28;0.77;;;0.30;;
19593;SDS011;9944;48.240;16.478;2023-12-22T17:55:34;0.20;;;0.20;;
19593;SDS011;9944;48.240;16.478;2023-12-22T17:59:37;1.58;;;0.30;;
19593;SDS011;9944;48.240;16.478;2023-12-22T18:03:42;0.20;;;0.20;;
19593;SDS011;9944;48.240;16.478;2023-12-22T18:07:45;0.17;;;0.17;;
19593;SDS011;9944;48.240;16.478;2023-12-22T18:11:50;0.30;;;0.30;;
19593;SDS011;9944;48.240;16.478;2023-12-22T18:15:53;0.30;;;0.30;;
19593;SDS011;9944;48.240;16.478;2023-12-22T18:19:57;0.17;;;0.17;;
19593;SDS011;9944;48.240;16.478;2023-12-22T18:24:00;0.20;;;0.20;;
19593;SDS011;9944;48.240;16.478;2023-12-22T18:28:05;0.60;;;0.30;;
19593;SDS011;9944;48.240;16.478;2023-12-22T18:32:08;0.52;;;0.30;;
19593;SDS011;9944;48.240;16.478;2023-12-22T18:36:13;0.63;;;0.20;;
19593;SDS011;9944;48.240;16.478;2023-12-22T18:40:16;0.20;;;0.20;;
19593;SDS011;9944;48.240;16.478;2023-12-22T18:44:20;1.27;;;0.30;;
19593;SDS011;9944;48.240;16.478;2023-12-22T18:48:23;0.25;;;0.22;;
19593;SDS011;9944;48.240;16.478;2023-12-22T18:52:27;0.20;;;0.20;;
19593;SDS011;9944;48.240;16.478;2023-12-22T18:56:30;0.30;;;0.30;;
19593;SDS011;9944;48.240;16.478;2023-12-22T19:00:35;0.25;;;0.25;;
19593;SDS011;9944;48.240;16.478;2023-12-22T19:04:38;0.35;;;0.32;;
19593;SDS011;9944;48.240;16.478;2023-12-22T19:08:41;0.70;;;0.60;;
19593;SDS011;9944;48.240;16.478;2023-12-22T19:12:44;0.22;;;0.22;;
19593;SDS011;9944;48.240;16.478;2023-12-22T19:16:52;0.68;;;0.47;;
19593;SDS011;9944;48.240;16.478;2023-12-22T19:20:57;0.32;;;0.32;;
19593;SDS011;9944;48.240;16.478;2023-12-22T19:25:00;0.35;;;0.35;;
19593;SDS011;9944;48.240;16.478;2023-12-22T19:29:03;0.25;;;0.25;;
19593;SDS011;9944;48.240;16.478;2023-12-22T19:33:08;0.60;;;0.20;;
19593;SDS011;9944;48.240;16.478;2023-12-22T19:37:11;0.40;;;0.30;;
19593;SDS011;9944;48.240;16.478;2023-12-22T19:41:16;0.55;;;0.40;;
19593;SDS011;9944;48.240;16.478;2023-12-22T19:45:19;0.43;;;0.43;;
19593;SDS011;9944;48.240;16.478;2023-12-22T19:49:24;0.40;;;0.40;;
19593;SDS011;9944;48.240;16.478;2023-12-22T19:53:29;0.50;;;0.50;;
19593;SDS011;9944;48.240;16.478;2023-12-22T19:57:32;0.57;;;0.57;;
19593;SDS011;9944;48.240;16.478;2023-12-22T20:01:35;0.68;;;0.60;;
19593;SDS011;9944;48.240;16.478;2023-12-22T20:05:40;0.90;;;0.63;;
19593;SDS011;9944;48.240;16.478;2023-12-22T20:09:44;0.75;;;0.60;;
19593;SDS011;9944;48.240;16.478;2023-12-22T20:13:48;2.25;;;1.20;;
19593;SDS011;9944;48.240;16.478;2023-12-22T20:17:50;1.05;;;0.95;;
19593;SDS011;9944;48.240;16.478;2023-12-22T20:21:56;1.00;;;0.80;;
19593;SDS011;9944;48.240;16.478;2023-12-22T20:25:59;0.70;;;0.63;;
19593;SDS011;9944;48.240;16.478;2023-12-22T20:30:03;0.90;;;0.77;;
19593;SDS011;9944;48.240;16.478;2023-12-22T20:34:07;1.05;;;0.80;;
19593;SDS011;9944;48.240;16.478;2023-12-22T20:38:11;2.97;;;0.65;;
19593;SDS011;9944;48.240;16.478;2023-12-22T20:42:14;1.70;;;0.90;;
19593;SDS011;9944;48.240;16.478;2023-12-22T20:46:17;0.80;;;0.70;;
19593;SDS011;9944;48.240;16.478;2023-12-22T20:50:20;0.65;;;0.65;;
19593;SDS011;9944;48.240;16.478;2023-12-22T20:54:25;1.85;;;0.90;;
19593;SDS011;9944;48.240;16.478;2023-12-22T20:58:30;1.33;;;0.70;;
19593;SDS011;9944;48.240;16.478;2023-12-22T21:02:33;1.38;;;1.00;;
19593;SDS011;9944;48.240;16.478;2023-12-22T21:06:38;2.28;;;0.90;;
19593;SDS011;9944;48.240;16.478;2023-12-22T21:10:42;2.65;;;0.90;;
19593;SDS011;9944;48.240;16.478;2023-12-22T21:14:46;1.13;;;0.90;;
19593;SDS011;9944;48.240;16.478;2023-12-22T21:18:51;2.33;;;0.80;;
19593;SDS011;9944;48.240;16.478;2023-12-22T21:22:54;1.58;;;0.90;;
19593;SDS011;9944;48.240;16.478;2023-12-22T21:27:00;1.02;;;0.85;;
19593;SDS011;9944;48.240;16.478;2023-12-22T21:31:05;1.08;;;0.90;;
19593;SDS011;9944;48.240;16.478;2023-12-22T21:35:09;1.17;;;0.95;;
19593;SDS011;9944;48.240;16.478;2023-12-22T21:39:12;1.23;;;0.85;;
19593;SDS011;9944;48.240;16.478;2023-12-22T21:43:17;2.97;;;0.93;;
19593;SDS011;9944;48.240;16.478;2023-12-22T21:47:20;0.60;;;0.60;;
19593;SDS011;9944;48.240;16.478;2023-12-22T21:51:23;0.52;;;0.52;;
19593;SDS011;9944;48.240;16.478;2023-12-22T21:55:27;0.63;;;0.40;;
19593;SDS011;9944;48.240;16.478;2023-12-22T21:59:33;0.38;;;0.38;;
19593;SDS011;9944;48.240;16.478;2023-12-22T22:03:36;0.17;;;0.15;;
19593;SDS011;9944;48.240;16.478;2023-12-22T22:07:40;1.65;;;0.30;;
19593;SDS011;9944;48.240;16.478;2023-12-22T22:11:43;0.28;;;0.25;;
19593;SDS011;9944;48.240;16.478;2023-12-22T22:15:48;0.40;;;0.35;;
19593;SDS011;9944;48.240;16.478;2023-12-22T22:19:51;1.15;;;0.45;;
19593;SDS011;9944;48.240;16.478;2023-12-22T22:23:54;0.55;;;0.20;;
19593;SDS011;9944;48.240;16.478;2023-12-22T22:27:57;0.20;;;0.10;;
19593;SDS011;9944;48.240;16.478;2023-12-22T22:32:02;0.45;;;0.20;;
19593;SDS011;9944;48.240;16.478;2023-12-22T22:36:05;0.17;;;0.17;;
19593;SDS011;9944;48.240;16.478;2023-12-22T22:40:09;1.77;;;0.25;;
19593;SDS011;9944;48.240;16.478;2023-12-22T22:44:12;0.22;;;0.20;;
19593;SDS011;9944;48.240;16.478;2023-12-22T22:48:17;0.40;;;0.20;;
19593;SDS011;9944;48.240;16.478;2023-12-22T22:52:21;1.05;;;0.30;;
19593;SDS011;9944;48.240;16.478;2023-12-22T22:56:24;0.10;;;0.10;;
19593;SDS011;9944;48.240;16.478;2023-12-22T23:05:35;1.40;;;0.30;;
19593;SDS011;9944;48.240;16.478;2023-12-22T23:09:59;0.10;;;0.10;;
19593;SDS011;9944;48.240;16.478;2023-12-22T23:14:23;0.65;;;0.30;;
19593;SDS011;9944;48.240;16.478;2023-12-22T23:18:46;0.45;;;0.20;;
19593;SDS011;9944;48.240;16.478;2023-12-22T23:23:10;0.25;;;0.20;;
19593;SDS011;9944;48.240;16.478;2023-12-22T23:27:33;0.30;;;0.30;;
19593;SDS011;9944;48.240;16.478;2023-12-22T23:31:57;0.20;;;0.20;;
19593;SDS011;9944;48.240;16.478;2023-12-22T23:36:20;0.30;;;0.30;;
19593;SDS011;9944;48.240;16.478;2023-12-22T23:40:50;0.50;;;0.30;;
19593;SDS011;9944;48.240;16.478;2023-12-22T23:45:13;0.70;;;0.60;;
19593;SDS011;9944;48.240;16.478;2023-12-22T23:49:36;0.55;;;0.38;;
19593;SDS011;9944;48.240;16.478;2023-12-22T23:53:59;0.32;;;0.20;;
19593;SDS011;9944;48.240;16.478;2023-12-22T23:58:24;0.28;;;0.28;;
